createdAt,value
2019-05-03T00:00:25.951Z,82.60
2019-05-03T00:02:52.326Z,83.30
2019-05-03T00:05:18.693Z,83.20
2019-05-03T00:07:44.960Z,83.20
2019-05-03T00:10:12.840Z,83.90
2019-05-03T00:12:39.275Z,84.90
2019-05-03T00:15:05.575Z,84.90
2019-05-03T00:17:32.458Z,85.20
2019-05-03T00:19:58.947Z,84.80
2019-05-03T00:22:25.253Z,85.00
2019-05-03T00:25:03.130Z,84.70
2019-05-03T00:27:21.608Z,84.90
2019-05-03T00:29:47.634Z,85.20
2019-05-03T00:32:13.888Z,85.10
2019-05-03T00:34:41.820Z,84.60
2019-05-03T00:37:08.229Z,84.60
2019-05-03T00:39:34.483Z,84.40
2019-05-03T00:42:02.623Z,84.80
2019-05-03T00:44:28.757Z,84.60
2019-05-03T00:46:55.108Z,84.40
2019-05-03T00:49:22.611Z,84.30
2019-05-03T00:51:49.126Z,84.30
2019-05-03T00:54:15.390Z,83.70
2019-05-03T00:56:44.134Z,83.80
2019-05-03T00:59:09.654Z,83.80
2019-05-03T01:01:35.931Z,83.60
2019-05-03T01:04:02.187Z,83.40
2019-05-03T01:06:28.481Z,82.10
2019-05-03T01:08:54.851Z,81.80
2019-05-03T01:11:22.254Z,81.00
2019-05-03T01:13:48.870Z,79.30
2019-05-03T01:16:15.167Z,77.90
2019-05-03T01:18:41.820Z,76.70
2019-05-03T01:21:08.186Z,76.70
2019-05-03T01:23:34.439Z,76.70
2019-05-03T01:26:02.389Z,76.50
2019-05-03T01:28:28.921Z,76.60
2019-05-03T01:30:55.222Z,75.90
2019-05-03T01:33:22.636Z,76.10
2019-05-03T01:35:49.137Z,76.00
2019-05-03T01:38:15.428Z,76.40
2019-05-03T01:40:41.973Z,76.50
2019-05-03T01:43:08.481Z,76.70
2019-05-03T01:45:34.894Z,77.10
2019-05-03T01:48:02.048Z,77.20
2019-05-03T01:50:28.349Z,77.00
2019-05-03T01:52:54.645Z,76.60
2019-05-03T01:55:22.655Z,77.10
2019-05-03T01:57:49.048Z,77.10
2019-05-03T02:00:15.319Z,77.30
2019-05-03T02:02:42.009Z,76.80
2019-05-03T02:05:08.465Z,76.70
2019-05-03T02:07:34.749Z,76.50
2019-05-03T02:10:02.775Z,76.60
2019-05-03T02:12:29.222Z,76.90
2019-05-03T02:14:55.529Z,76.70
2019-05-03T02:17:22.626Z,77.20
2019-05-03T02:19:49.024Z,77.60
2019-05-03T02:22:15.288Z,77.30
2019-05-03T02:24:42.217Z,77.90
2019-05-03T02:27:08.711Z,77.50
2019-05-03T02:29:35.135Z,78.00
2019-05-03T02:32:03.345Z,78.00
2019-05-03T02:34:32.460Z,77.90
2019-05-03T02:36:57.545Z,78.10
2019-05-03T02:39:24.053Z,78.10
2019-05-03T02:41:55.265Z,78.10
2019-05-03T02:44:18.294Z,78.50
2019-05-03T02:46:45.383Z,78.90
2019-05-03T02:49:11.807Z,78.70
2019-05-03T02:51:38.099Z,79.00
2019-05-03T02:54:05.575Z,78.90
2019-05-03T02:56:32.050Z,78.80
2019-05-03T02:58:58.340Z,79.10
2019-05-03T03:01:26.392Z,79.30
2019-05-03T03:03:52.687Z,78.90
2019-05-03T03:06:18.934Z,78.90
2019-05-03T03:08:45.562Z,78.80
2019-05-03T03:11:12.051Z,78.90
2019-05-03T03:13:38.314Z,79.60
2019-05-03T03:16:06.679Z,79.50
2019-05-03T03:18:32.563Z,79.50
2019-05-03T03:20:58.854Z,79.50
2019-05-03T03:23:26.251Z,79.50
2019-05-03T03:25:55.641Z,79.50
2019-05-03T03:28:20.862Z,79.40
2019-05-03T03:30:48.594Z,79.50
2019-05-03T03:33:17.518Z,79.90
2019-05-03T03:35:48.436Z,79.50
2019-05-03T03:38:11.543Z,80.00
2019-05-03T03:40:37.828Z,80.20
2019-05-03T03:43:05.345Z,80.30
2019-05-03T03:45:31.923Z,80.20
2019-05-03T03:47:58.208Z,80.20
2019-05-03T03:50:25.903Z,80.30
2019-05-03T03:52:52.521Z,80.50
2019-05-03T03:55:18.771Z,80.50
2019-05-03T03:57:46.745Z,80.40
2019-05-03T04:00:13.067Z,80.40
2019-05-03T04:02:39.370Z,81.00
2019-05-03T04:05:05.736Z,81.00
2019-05-03T04:07:32.072Z,81.00
2019-05-03T04:09:58.375Z,81.30
2019-05-03T04:12:26.595Z,81.00
2019-05-03T04:14:52.705Z,80.50
2019-05-03T04:17:18.974Z,81.00
2019-05-03T04:19:45.590Z,81.30
2019-05-03T04:22:12.000Z,81.30
2019-05-03T04:24:38.266Z,81.00
2019-05-03T04:27:15.592Z,81.00
2019-05-03T04:29:32.590Z,81.20
2019-05-03T04:31:58.852Z,81.80
2019-05-03T04:34:26.341Z,81.20
2019-05-03T04:36:55.347Z,81.20
2019-05-03T04:39:20.876Z,81.20
2019-05-03T04:41:47.145Z,81.00
2019-05-03T04:44:15.497Z,81.80
2019-05-03T04:46:41.788Z,81.30
2019-05-03T04:49:08.095Z,81.20
2019-05-03T04:51:35.063Z,80.70
2019-05-03T04:54:01.632Z,80.20
2019-05-03T04:56:27.895Z,80.30
2019-05-03T04:58:55.927Z,80.30
2019-05-03T05:01:22.434Z,80.10
2019-05-03T05:03:48.762Z,80.30
2019-05-03T05:06:15.567Z,80.50
2019-05-03T05:08:42.003Z,80.60
2019-05-03T05:11:10.530Z,81.20
2019-05-03T05:13:36.322Z,80.80
2019-05-03T05:16:02.682Z,81.20
2019-05-03T05:18:30.121Z,81.10
2019-05-03T05:20:56.427Z,80.60
2019-05-03T05:23:22.670Z,80.80
2019-05-03T05:25:48.984Z,80.60
2019-05-03T05:28:15.258Z,80.70
2019-05-03T05:30:41.545Z,80.30
2019-05-03T05:33:07.804Z,80.40
2019-05-03T05:35:35.233Z,80.70
2019-05-03T05:38:01.676Z,80.30
2019-05-03T05:40:27.967Z,80.20
2019-05-03T05:42:54.614Z,80.30
2019-05-03T05:45:21.061Z,80.80
2019-05-03T05:47:47.322Z,80.50
2019-05-03T05:50:14.870Z,80.60
2019-05-03T05:52:41.400Z,80.80
2019-05-03T05:55:12.319Z,79.40
2019-05-03T05:57:39.167Z,79.80
2019-05-03T06:00:05.479Z,78.20
2019-05-03T06:02:31.906Z,77.60
2019-05-03T06:04:58.186Z,78.30
2019-05-03T06:07:24.888Z,78.70
2019-05-03T06:09:51.550Z,77.90
2019-05-03T06:12:17.988Z,78.90
2019-05-03T06:14:45.313Z,79.20
2019-05-03T06:17:11.785Z,79.70
2019-05-03T06:19:38.047Z,80.30
2019-05-03T06:22:05.112Z,79.30
2019-05-03T06:24:31.511Z,80.30
2019-05-03T06:26:57.803Z,82.70
2019-05-03T06:29:24.780Z,84.90
2019-05-03T06:31:51.341Z,85.00
2019-05-03T06:34:17.612Z,86.00
2019-05-03T06:36:44.295Z,85.10
2019-05-03T06:39:10.713Z,86.10
2019-05-03T06:41:37.000Z,88.40
2019-05-03T06:44:04.358Z,86.50
2019-05-03T06:46:31.518Z,88.60
2019-05-03T06:49:01.124Z,87.00
2019-05-03T06:51:26.095Z,87.10
2019-05-03T06:53:52.398Z,88.70
2019-05-03T06:56:19.269Z,87.30
2019-05-03T06:58:46.662Z,87.20
2019-05-03T07:01:14.778Z,87.40
2019-05-03T07:03:41.190Z,86.00
2019-05-03T07:06:07.470Z,84.40
2019-05-03T07:08:34.454Z,84.70
2019-05-03T07:11:00.927Z,84.10
2019-05-03T07:13:27.347Z,84.10
2019-05-03T07:15:55.895Z,86.60
2019-05-03T07:18:21.796Z,85.00
2019-05-03T07:20:48.025Z,86.10
2019-05-03T07:23:15.637Z,83.50
2019-05-03T07:25:42.160Z,78.70
2019-05-03T07:28:08.455Z,79.60
2019-05-03T07:30:36.947Z,80.00
2019-05-03T07:33:04.743Z,80.50
2019-05-03T07:35:32.947Z,80.20
2019-05-03T07:37:59.230Z,81.00
2019-05-03T07:40:25.603Z,79.50
2019-05-03T07:42:52.071Z,79.90
2019-05-03T07:45:18.350Z,74.80
2019-05-03T07:47:45.214Z,70.40
2019-05-03T07:50:11.642Z,66.50
2019-05-03T07:52:37.894Z,66.70
2019-05-03T07:55:04.666Z,58.50
2019-05-03T07:57:31.031Z,57.90
2019-05-03T08:00:09.213Z,56.80
2019-05-03T08:02:35.912Z,57.50
2019-05-03T08:05:02.516Z,57.80
2019-05-03T08:07:28.804Z,57.40
2019-05-03T08:09:55.543Z,58.10
2019-05-03T08:12:22.022Z,57.60
2019-05-03T08:14:48.307Z,59.50
2019-05-03T08:17:15.267Z,61.40
2019-05-03T08:19:41.638Z,60.80
2019-05-03T08:22:07.897Z,58.80
2019-05-03T08:24:34.688Z,60.00
2019-05-03T08:27:01.084Z,59.40
2019-05-03T08:29:27.659Z,58.70
2019-05-03T08:31:54.547Z,55.30
2019-05-03T08:34:21.134Z,56.90
2019-05-03T08:36:47.423Z,57.10
2019-05-03T08:39:15.757Z,57.40
2019-05-03T08:41:41.732Z,57.10
2019-05-03T08:44:07.997Z,56.70
2019-05-03T08:46:35.593Z,55.20
2019-05-03T08:49:02.033Z,55.80
2019-05-03T08:51:28.317Z,53.90
2019-05-03T08:53:56.021Z,55.20
2019-05-03T08:56:24.463Z,53.80
2019-05-03T08:58:50.471Z,54.70
2019-05-03T09:01:16.775Z,55.90
2019-05-03T09:03:43.065Z,56.20
2019-05-03T09:06:09.404Z,55.60
2019-05-03T09:08:35.663Z,54.00
2019-05-03T09:11:02.119Z,55.30
2019-05-03T09:13:28.390Z,52.90
2019-05-03T09:15:55.241Z,54.30
2019-05-03T09:18:21.737Z,54.20
2019-05-03T09:20:47.994Z,54.70
2019-05-03T09:23:14.904Z,51.00
2019-05-03T09:25:41.331Z,49.10
2019-05-03T09:28:07.582Z,49.30
2019-05-03T09:30:35.738Z,49.90
2019-05-03T09:33:02.229Z,47.30
2019-05-03T09:35:32.858Z,49.30
2019-05-03T09:37:56.462Z,49.60
2019-05-03T09:40:24.482Z,50.00
2019-05-03T09:42:50.738Z,48.10
2019-05-03T09:45:16.999Z,48.50
2019-05-03T09:47:44.803Z,49.60
2019-05-03T09:50:11.338Z,51.10
2019-05-03T09:52:37.633Z,49.70
2019-05-03T09:55:05.257Z,51.10
2019-05-03T09:57:31.766Z,52.90
2019-05-03T10:00:00.071Z,52.00
2019-05-03T10:02:26.031Z,51.90
2019-05-03T10:04:52.291Z,52.10
2019-05-03T10:07:18.564Z,51.70
2019-05-03T10:09:45.168Z,51.50
2019-05-03T10:12:11.620Z,52.00
2019-05-03T10:14:37.936Z,53.10
2019-05-03T10:17:05.346Z,53.70
2019-05-03T10:19:39.742Z,53.90
2019-05-03T10:21:59.902Z,54.20
2019-05-03T10:24:26.186Z,55.00
2019-05-03T10:26:52.491Z,53.20
2019-05-03T10:29:18.799Z,54.20
2019-05-03T10:31:45.034Z,52.70
2019-05-03T10:34:11.325Z,53.50
2019-05-03T10:36:37.606Z,54.30
2019-05-03T10:39:04.813Z,54.90
2019-05-03T10:41:31.242Z,55.20
2019-05-03T10:43:57.503Z,54.90
2019-05-03T10:46:25.058Z,54.70
2019-05-03T10:48:51.806Z,54.90
2019-05-03T10:51:18.081Z,54.40
2019-05-03T10:53:45.466Z,55.30
2019-05-03T10:56:13.884Z,54.00
2019-05-03T10:58:39.938Z,55.10
2019-05-03T11:01:06.241Z,53.70
2019-05-03T11:03:34.046Z,52.60
2019-05-03T11:06:00.701Z,52.80
2019-05-03T11:08:26.951Z,52.60
2019-05-03T11:10:54.891Z,52.00
2019-05-03T11:13:21.246Z,52.70
2019-05-03T11:15:47.540Z,53.50
2019-05-03T11:18:14.713Z,52.80
2019-05-03T11:20:41.207Z,51.60
2019-05-03T11:23:07.475Z,52.10
2019-05-03T11:25:34.464Z,52.80
2019-05-03T11:28:00.877Z,53.00
2019-05-03T11:30:27.171Z,51.90
2019-05-03T11:32:55.470Z,53.40
2019-05-03T11:35:21.502Z,50.50
2019-05-03T11:37:47.824Z,49.50
2019-05-03T11:40:15.723Z,51.90
2019-05-03T11:42:42.364Z,52.10
2019-05-03T11:45:08.671Z,48.20
2019-05-03T11:47:34.947Z,45.60
2019-05-03T11:50:01.238Z,47.60
2019-05-03T11:52:27.507Z,48.30
2019-05-03T11:54:55.294Z,45.80
2019-05-03T11:57:21.805Z,47.00
2019-05-03T11:59:48.072Z,45.60
2019-05-03T12:02:15.337Z,44.20
2019-05-03T12:04:41.795Z,45.40
2019-05-03T12:07:08.113Z,46.50
2019-05-03T12:09:34.347Z,45.90
2019-05-03T12:12:00.615Z,45.90
2019-05-03T12:14:26.886Z,44.60
2019-05-03T12:17:14.610Z,45.20
2019-05-03T12:19:26.214Z,45.50
2019-05-03T12:21:49.633Z,45.20
2019-05-03T12:24:17.051Z,42.20
2019-05-03T12:26:46.785Z,43.90
2019-05-03T12:29:11.755Z,41.90
2019-05-03T12:31:40.639Z,42.20
2019-05-03T12:34:06.164Z,40.80
2019-05-03T12:36:35.962Z,41.90
2019-05-03T12:39:00.581Z,40.40
2019-05-03T12:41:26.850Z,41.80
2019-05-03T12:43:55.038Z,42.00
2019-05-03T12:46:21.119Z,42.10
2019-05-03T12:48:47.423Z,42.20
2019-05-03T12:51:15.223Z,44.10
2019-05-03T12:53:41.734Z,43.80
2019-05-03T12:56:11.619Z,44.30
2019-05-03T12:58:36.055Z,45.90
2019-05-03T13:01:02.339Z,45.60
2019-05-03T13:03:28.619Z,44.30
2019-05-03T13:05:55.594Z,45.50
2019-05-03T13:08:22.065Z,45.00
2019-05-03T13:10:48.551Z,44.80
2019-05-03T13:13:14.874Z,44.40
2019-05-03T13:15:41.131Z,43.90
2019-05-03T13:18:07.407Z,43.60
2019-05-03T13:20:35.870Z,44.70
2019-05-03T13:23:01.673Z,43.70
2019-05-03T13:25:27.956Z,42.80
2019-05-03T13:27:54.782Z,43.00
2019-05-03T13:30:21.177Z,42.20
2019-05-03T13:32:47.449Z,43.00
2019-05-03T13:35:15.074Z,43.30
2019-05-03T13:37:41.542Z,42.90
2019-05-03T13:40:07.957Z,42.90
2019-05-03T13:42:35.094Z,44.00
2019-05-03T13:45:01.576Z,43.50
2019-05-03T13:47:27.858Z,42.40
2019-05-03T13:49:55.210Z,43.10
2019-05-03T13:52:21.662Z,43.90
2019-05-03T13:54:47.984Z,44.90
2019-05-03T13:57:15.423Z,43.90
2019-05-03T13:59:41.938Z,43.40
2019-05-03T14:02:15.115Z,43.40
2019-05-03T14:04:49.315Z,44.10
2019-05-03T14:07:04.675Z,44.00
2019-05-03T14:09:31.082Z,43.30
2019-05-03T14:11:57.407Z,42.70
2019-05-03T14:14:25.700Z,43.80
2019-05-03T14:16:51.673Z,43.00
2019-05-03T14:19:17.940Z,43.30
2019-05-03T14:21:44.205Z,40.50
2019-05-03T14:24:10.490Z,42.30
2019-05-03T14:26:36.771Z,40.80
2019-05-03T14:29:03.012Z,38.50
2019-05-03T14:31:29.301Z,39.20
2019-05-03T14:33:56.015Z,40.20
2019-05-03T14:36:22.350Z,38.70
2019-05-03T14:38:48.627Z,39.00
2019-05-03T14:41:15.165Z,39.70
2019-05-03T14:43:41.552Z,38.50
2019-05-03T14:46:07.875Z,38.00
2019-05-03T14:48:35.124Z,38.20
2019-05-03T14:51:01.554Z,38.50
2019-05-03T14:53:27.799Z,38.40
2019-05-03T14:55:54.142Z,38.70
2019-05-03T14:58:20.435Z,40.70
2019-05-03T15:00:46.695Z,41.90
2019-05-03T15:03:14.998Z,41.60
2019-05-03T15:05:40.981Z,40.30
2019-05-03T15:08:07.252Z,40.60
2019-05-03T15:10:35.057Z,42.60
2019-05-03T15:13:01.578Z,42.70
2019-05-03T15:15:28.918Z,41.80
2019-05-03T15:17:55.515Z,43.60
2019-05-03T15:20:21.767Z,43.40
2019-05-03T15:22:48.079Z,43.10
2019-05-03T15:25:14.415Z,43.80
2019-05-03T15:27:40.981Z,44.70
2019-05-03T15:30:07.265Z,45.00
2019-05-03T15:32:35.343Z,43.80
2019-05-03T15:35:01.609Z,44.10
2019-05-03T15:37:27.890Z,44.30
2019-05-03T15:39:54.660Z,44.10
2019-05-03T15:42:21.274Z,44.10
2019-05-03T15:44:47.603Z,44.20
2019-05-03T15:47:14.793Z,44.10
2019-05-03T15:49:41.231Z,45.40
2019-05-03T15:52:07.492Z,44.90
2019-05-03T15:54:35.329Z,46.40
2019-05-03T15:57:01.762Z,44.20
2019-05-03T15:59:28.031Z,45.00
2019-05-03T16:01:55.315Z,43.70
2019-05-03T16:04:21.781Z,44.60
2019-05-03T16:06:48.059Z,42.10
2019-05-03T16:09:16.423Z,43.30
2019-05-03T16:11:42.679Z,43.70
2019-05-03T16:14:08.990Z,43.40
2019-05-03T16:16:35.434Z,43.50
2019-05-03T16:19:01.934Z,42.90
2019-05-03T16:21:28.182Z,45.00
2019-05-03T16:23:55.519Z,44.50
2019-05-03T16:26:22.008Z,44.20
2019-05-03T16:28:48.309Z,44.90
2019-05-03T16:31:14.601Z,45.60
2019-05-03T16:33:40.898Z,44.60
2019-05-03T16:36:07.188Z,45.40
2019-05-03T16:38:35.268Z,45.10
2019-05-03T16:41:01.479Z,45.40
2019-05-03T16:43:27.741Z,45.10
2019-05-03T16:45:55.147Z,45.80
2019-05-03T16:48:21.638Z,46.10
2019-05-03T16:50:47.934Z,46.50
2019-05-03T16:53:14.761Z,45.20
2019-05-03T16:55:41.399Z,44.80
2019-05-03T16:58:07.692Z,45.20
2019-05-03T17:00:35.285Z,44.70
2019-05-03T17:03:01.741Z,44.90
2019-05-03T17:05:28.041Z,44.80
2019-05-03T17:07:54.334Z,46.30
2019-05-03T17:10:20.664Z,45.50
2019-05-03T17:12:47.366Z,45.40
2019-05-03T17:15:14.468Z,46.00
2019-05-03T17:17:40.936Z,47.40
2019-05-03T17:20:07.371Z,48.00
2019-05-03T17:22:34.503Z,47.60
2019-05-03T17:25:01.143Z,47.30
2019-05-03T17:27:27.445Z,47.80
2019-05-03T17:29:55.250Z,47.60
2019-05-03T17:32:21.789Z,48.00
2019-05-03T17:34:48.052Z,48.60
2019-05-03T17:37:14.394Z,49.30
2019-05-03T17:39:40.669Z,48.00
2019-05-03T17:42:07.006Z,48.70
2019-05-03T17:44:34.518Z,49.40
2019-05-03T17:47:00.878Z,48.70
2019-05-03T17:49:27.140Z,50.00
2019-05-03T17:51:55.335Z,50.50
2019-05-03T17:54:21.423Z,50.40
2019-05-03T17:56:47.720Z,49.90
2019-05-03T17:59:15.201Z,49.80
2019-05-03T18:01:41.674Z,49.80
2019-05-03T18:04:09.573Z,50.60
2019-05-03T18:06:36.184Z,49.90
2019-05-03T18:09:04.318Z,50.60
2019-05-03T18:11:34.575Z,50.30
2019-05-03T18:14:00.654Z,49.90
2019-05-03T18:16:26.933Z,51.30
2019-05-03T18:18:54.782Z,50.60
2019-05-03T18:21:21.217Z,50.90
2019-05-03T18:23:47.486Z,50.00
2019-05-03T18:26:14.396Z,50.40
2019-05-03T18:28:40.848Z,51.00
2019-05-03T18:31:08.747Z,51.10
2019-05-03T18:33:35.280Z,51.90
2019-05-03T18:36:01.544Z,51.80
2019-05-03T18:38:28.104Z,50.90
2019-05-03T18:40:55.315Z,51.90
2019-05-03T18:43:21.762Z,52.10
2019-05-03T18:45:48.007Z,51.80
2019-05-03T18:48:14.441Z,51.80
2019-05-03T18:50:40.768Z,51.90
2019-05-03T18:53:07.189Z,52.40
2019-05-03T18:55:34.427Z,53.10
2019-05-03T18:58:00.838Z,52.40
2019-05-03T19:00:27.119Z,53.40
2019-05-03T19:02:54.637Z,52.50
2019-05-03T19:05:21.119Z,52.70
2019-05-03T19:07:47.375Z,53.30
2019-05-03T19:10:15.355Z,53.90
2019-05-03T19:12:42.008Z,54.10
2019-05-03T19:15:08.321Z,54.30
2019-05-03T19:17:35.554Z,54.10
2019-05-03T19:20:01.985Z,55.40
2019-05-03T19:22:28.289Z,54.80
2019-05-03T19:24:54.665Z,54.80
2019-05-03T19:27:20.957Z,55.20
2019-05-03T19:29:47.248Z,54.90
2019-05-03T19:32:15.000Z,55.40
2019-05-03T19:34:48.458Z,56.20
2019-05-03T19:37:09.440Z,55.70
2019-05-03T19:39:35.755Z,56.40
2019-05-03T19:42:04.107Z,56.60
2019-05-03T19:44:30.383Z,56.70
2019-05-03T19:46:56.912Z,56.50
2019-05-03T19:49:24.682Z,56.30
2019-05-03T19:51:51.271Z,56.60
2019-05-03T19:54:17.571Z,56.90
2019-05-03T19:56:44.604Z,57.70
2019-05-03T19:59:11.850Z,57.30
2019-05-03T20:01:38.166Z,57.30
2019-05-03T20:04:06.018Z,57.60
2019-05-03T20:06:34.447Z,57.90
2019-05-03T20:09:03.113Z,57.70
2019-05-03T20:11:29.408Z,57.40
2019-05-03T20:13:55.691Z,58.20
2019-05-03T20:16:22.095Z,58.40
2019-05-03T20:18:48.410Z,58.30
2019-05-03T20:21:15.232Z,58.60
2019-05-03T20:23:41.910Z,59.30
2019-05-03T20:26:08.356Z,59.10
2019-05-03T20:28:35.448Z,59.10
2019-05-03T20:31:01.834Z,59.10
2019-05-03T20:33:28.098Z,58.90
2019-05-03T20:35:56.225Z,58.60
2019-05-03T20:38:24.602Z,58.60
2019-05-03T20:40:50.984Z,58.80
2019-05-03T20:43:17.381Z,58.80
2019-05-03T20:45:44.511Z,59.20
2019-05-03T20:48:11.065Z,59.60
2019-05-03T20:50:37.319Z,59.50
2019-05-03T20:53:05.377Z,59.90
2019-05-03T20:55:31.806Z,60.90
2019-05-03T20:57:58.082Z,60.80
2019-05-03T21:00:25.645Z,61.00
2019-05-03T21:02:57.298Z,61.20
2019-05-03T21:05:29.544Z,62.00
2019-05-03T21:07:51.405Z,62.50
2019-05-03T21:10:17.865Z,61.80
2019-05-03T21:12:44.118Z,61.50
2019-05-03T21:15:10.375Z,62.40
2019-05-03T21:17:36.998Z,62.80
2019-05-03T21:20:03.469Z,62.30
2019-05-03T21:22:29.770Z,62.90
2019-05-03T21:24:56.124Z,63.20
2019-05-03T21:27:24.545Z,63.00
2019-05-03T21:29:50.453Z,63.00
2019-05-03T21:32:17.155Z,62.90
2019-05-03T21:34:45.142Z,63.40
2019-05-03T21:37:11.576Z,63.80
2019-05-03T21:39:37.871Z,63.80
2019-05-03T21:42:04.710Z,64.00
2019-05-03T21:44:31.257Z,64.30
2019-05-03T21:46:57.614Z,64.10
2019-05-03T21:49:25.300Z,64.60
2019-05-03T21:51:53.589Z,64.50
2019-05-03T21:54:19.762Z,65.10
2019-05-03T21:56:46.047Z,65.50
2019-05-03T21:59:12.327Z,65.30
2019-05-03T22:01:38.609Z,65.30
2019-05-03T22:04:04.883Z,65.60
2019-05-03T22:06:31.199Z,65.60
2019-05-03T22:08:58.414Z,67.40
2019-05-03T22:11:25.258Z,67.20
2019-05-03T22:13:51.745Z,67.50
2019-05-03T22:16:20.115Z,67.60
2019-05-03T22:18:46.398Z,68.50
2019-05-03T22:21:12.691Z,67.80
2019-05-03T22:23:38.978Z,67.70
2019-05-03T22:26:05.280Z,67.90
2019-05-03T22:28:31.533Z,68.10
2019-05-03T22:30:57.834Z,69.40
2019-05-03T22:33:24.110Z,68.70
2019-05-03T22:35:50.409Z,68.50
2019-05-03T22:38:16.692Z,69.30
2019-05-03T22:40:44.282Z,70.10
2019-05-03T22:43:11.018Z,70.50
2019-05-03T22:45:37.491Z,70.40
2019-05-03T22:48:05.218Z,70.50
2019-05-03T22:50:31.763Z,70.90
2019-05-03T22:52:58.073Z,71.00
2019-05-03T22:55:24.663Z,71.40
2019-05-03T22:57:51.222Z,70.50
2019-05-03T23:00:17.491Z,72.40
2019-05-03T23:02:45.491Z,71.60
2019-05-03T23:05:11.778Z,71.90
2019-05-03T23:07:38.183Z,72.70
2019-05-03T23:10:04.438Z,72.10
2019-05-03T23:12:30.963Z,72.70
2019-05-03T23:14:58.104Z,71.90
2019-05-03T23:17:25.372Z,73.20
2019-05-03T23:19:51.861Z,73.30
2019-05-03T23:22:18.148Z,73.10
2019-05-03T23:24:44.391Z,73.00
2019-05-03T23:27:10.696Z,73.40
2019-05-03T23:29:37.000Z,73.90
2019-05-03T23:32:04.677Z,74.20
2019-05-03T23:34:31.237Z,73.50
2019-05-03T23:36:57.725Z,73.80
2019-05-03T23:39:24.896Z,74.50
2019-05-03T23:41:51.433Z,74.70
2019-05-03T23:44:17.706Z,75.00
2019-05-03T23:46:45.477Z,74.30
2019-05-03T23:49:11.970Z,74.30
2019-05-03T23:51:38.210Z,74.50
2019-05-03T23:54:05.515Z,74.70
2019-05-03T23:56:31.938Z,74.50
2019-05-03T23:58:58.221Z,74.80
